Time;durP1;ratioP1;P1;durP2;ratioP2;P2;SDS_P1;SDS_P2;PMS_P1;PMS_P2;Temp;Humidity;BMP_temperature;BMP_pressure;BME280_temperature;BME280_humidity;BME280_pressure;Samples;Min_cycle;Max_cycle;Signal;HPM_P1;HPM_P2
2023/09/23 00:00:49;;;;;;;16.83;13.02;;;;;;;;;;4975374;28;20487;-73
2023/09/23 00:03:16;;;;;;;19.60;14.48;;;;;;;;;;4993342;28;20103;-72
2023/09/23 00:05:43;;;;;;;22.67;15.38;;;;;;;;;;4996485;28;20049;-74
2023/09/23 00:08:10;;;;;;;18.05;14.13;;;;;;;;;;4979542;28;20350;-74
2023/09/23 00:10:37;;;;;;;18.80;14.10;;;;;;;;;;4987600;28;20022;-74
2023/09/23 00:13:03;;;;;;;23.92;13.93;;;;;;;;;;4988280;28;20038;-73
2023/09/23 00:15:30;;;;;;;24.23;14.52;;;;;;;;;;4993097;28;20066;-74
2023/09/23 00:17:57;;;;;;;20.20;13.77;;;;;;;;;;4992770;28;20041;-72
2023/09/23 00:20:23;;;;;;;18.17;13.80;;;;;;;;;;4977925;28;20039;-74
2023/09/23 00:22:54;;;;;;;18.63;13.38;;;;;;;;;;4995873;28;20121;-74
2023/09/23 00:25:21;;;;;;;15.98;11.30;;;;;;;;;;5000617;28;20022;-78
2023/09/23 00:27:48;;;;;;;16.95;10.30;;;;;;;;;;4987658;28;20061;-73
2023/09/23 00:30:15;;;;;;;16.55;10.80;;;;;;;;;;4987751;28;21374;-74
2023/09/23 00:32:44;;;;;;;13.77;9.40;;;;;;;;;;4998793;28;20080;-73
2023/09/23 00:35:11;;;;;;;13.07;8.70;;;;;;;;;;4999057;28;20450;-74
2023/09/23 00:37:40;;;;;;;10.75;8.38;;;;;;;;;;4985981;28;20404;-75
2023/09/23 00:40:06;;;;;;;11.48;7.60;;;;;;;;;;4985943;28;20026;-74
2023/09/23 00:42:38;;;;;;;16.58;9.60;;;;;;;;;;4993567;28;20046;-74
2023/09/23 00:45:06;;;;;;;13.90;9.07;;;;;;;;;;4989094;28;20488;-74
2023/09/23 00:47:32;;;;;;;12.57;9.75;;;;;;;;;;4992618;28;20510;-74
2023/09/23 00:49:58;;;;;;;12.43;9.50;;;;;;;;;;4994602;28;20353;-74
2023/09/23 00:52:25;;;;;;;15.32;9.70;;;;;;;;;;4988725;28;20053;-74
2023/09/23 00:54:51;;;;;;;15.55;10.73;;;;;;;;;;4981889;28;20040;-74
2023/09/23 00:57:17;;;;;;;15.50;9.80;;;;;;;;;;4977359;28;20069;-74
2023/09/23 00:59:43;;;;;;;13.40;10.07;;;;;;;;;;4993039;28;20056;-74
2023/09/23 01:02:13;;;;;;;15.45;10.85;;;;;;;;;;4989489;28;20570;-74
2023/09/23 01:04:40;;;;;;;17.47;12.30;;;;;;;;;;4956300;28;20033;-73
2023/09/23 01:07:06;;;;;;;17.52;11.40;;;;;;;;;;4993456;28;20038;-74
2023/09/23 01:09:33;;;;;;;17.70;12.02;;;;;;;;;;4981652;28;20034;-74
2023/09/23 01:12:00;;;;;;;17.77;12.35;;;;;;;;;;4979046;28;20026;-74
2023/09/23 01:14:26;;;;;;;20.48;12.45;;;;;;;;;;4977582;28;20038;-75
2023/09/23 01:16:53;;;;;;;19.27;12.68;;;;;;;;;;4979446;28;20092;-72
2023/09/23 01:19:20;;;;;;;22.33;14.18;;;;;;;;;;4993088;28;20038;-74
2023/09/23 01:21:49;;;;;;;33.10;16.83;;;;;;;;;;4974557;28;20506;-74
2023/09/23 01:24:18;;;;;;;31.52;17.85;;;;;;;;;;4986231;28;20125;-73
2023/09/23 01:26:45;;;;;;;43.25;22.42;;;;;;;;;;4992157;28;20049;-74
2023/09/23 01:29:12;;;;;;;44.97;24.63;;;;;;;;;;4998501;28;20050;-74
2023/09/23 01:31:38;;;;;;;57.60;31.10;;;;;;;;;;4990514;28;20038;-73
2023/09/23 01:34:05;;;;;;;64.65;34.33;;;;;;;;;;4984021;28;20066;-74
2023/09/23 01:36:31;;;;;;;78.78;37.17;;;;;;;;;;4978964;28;20080;-74
2023/09/23 01:38:59;;;;;;;84.00;41.80;;;;;;;;;;4977361;28;20045;-74
2023/09/23 01:41:26;;;;;;;81.82;40.95;;;;;;;;;;4989029;28;20543;-73
2023/09/23 01:43:52;;;;;;;91.22;42.67;;;;;;;;;;4968105;28;20104;-73
2023/09/23 01:46:19;;;;;;;88.45;43.83;;;;;;;;;;4987955;28;20029;-73
2023/09/23 01:48:45;;;;;;;96.97;45.72;;;;;;;;;;4985831;28;20034;-73
2023/09/23 01:51:16;;;;;;;100.15;47.75;;;;;;;;;;4996586;28;20031;-74
2023/09/23 01:53:43;;;;;;;104.70;49.53;;;;;;;;;;4994887;28;20219;-75
2023/09/23 01:56:09;;;;;;;111.68;51.65;;;;;;;;;;4998710;28;20148;-73
2023/09/23 01:58:35;;;;;;;115.05;52.50;;;;;;;;;;4983986;28;20089;-72
2023/09/23 02:01:04;;;;;;;115.07;52.22;;;;;;;;;;4969043;28;20053;-74
2023/09/23 02:03:30;;;;;;;109.75;52.28;;;;;;;;;;4983316;28;20034;-74
2023/09/23 02:05:56;;;;;;;112.22;53.33;;;;;;;;;;4990922;28;20046;-74
2023/09/23 02:08:23;;;;;;;114.18;53.65;;;;;;;;;;4991389;28;20332;-74
2023/09/23 02:10:49;;;;;;;99.43;52.30;;;;;;;;;;4981175;28;20487;-74
2023/09/23 02:13:15;;;;;;;100.75;53.28;;;;;;;;;;4969943;28;20030;-73
2023/09/23 02:15:41;;;;;;;106.85;53.88;;;;;;;;;;4960569;28;20375;-74
2023/09/23 02:18:07;;;;;;;106.32;52.28;;;;;;;;;;4996331;28;20069;-73
2023/09/23 02:20:34;;;;;;;103.78;52.60;;;;;;;;;;5000866;28;20044;-74
2023/09/23 02:23:00;;;;;;;103.78;53.13;;;;;;;;;;4994072;28;20049;-74
2023/09/23 02:25:27;;;;;;;99.03;49.88;;;;;;;;;;4986555;28;20132;-74
2023/09/23 02:27:54;;;;;;;97.10;50.58;;;;;;;;;;4978273;28;20740;-74
2023/09/23 02:30:21;;;;;;;100.22;49.17;;;;;;;;;;4990881;28;20030;-74
2023/09/23 02:32:48;;;;;;;96.80;48.40;;;;;;;;;;4987962;28;20048;-75
2023/09/23 02:35:15;;;;;;;95.30;48.35;;;;;;;;;;4983779;28;20039;-74
2023/09/23 02:37:42;;;;;;;94.13;47.17;;;;;;;;;;4985065;28;20125;-74
2023/09/23 02:40:12;;;;;;;90.50;46.80;;;;;;;;;;4990323;28;20045;-73
2023/09/23 02:42:40;;;;;;;97.50;47.67;;;;;;;;;;4991620;28;20030;-73
2023/09/23 02:45:07;;;;;;;108.30;48.90;;;;;;;;;;5000041;28;20062;-73
2023/09/23 02:47:33;;;;;;;94.90;47.80;;;;;;;;;;4983752;28;20026;-73
2023/09/23 02:49:59;;;;;;;95.50;48.67;;;;;;;;;;4968578;28;20496;-73
2023/09/23 02:52:25;;;;;;;96.47;49.60;;;;;;;;;;4973163;28;20075;-74
2023/09/23 02:54:54;;;;;;;88.88;48.20;;;;;;;;;;4993241;28;20030;-74
2023/09/23 02:57:20;;;;;;;97.80;49.53;;;;;;;;;;4988587;28;20504;-72
2023/09/23 02:59:53;;;;;;;93.72;47.90;;;;;;;;;;4985961;28;20057;-74
2023/09/23 03:02:24;;;;;;;96.30;49.05;;;;;;;;;;4972508;28;20034;-74
2023/09/23 03:04:58;;;;;;;99.50;48.85;;;;;;;;;;4993246;28;20124;-74
2023/09/23 03:07:33;;;;;;;99.90;48.90;;;;;;;;;;4981490;28;20041;-73
2023/09/23 03:10:01;;;;;;;95.13;49.72;;;;;;;;;;4969972;28;20076;-73
2023/09/23 03:12:40;;;;;;;97.38;50.10;;;;;;;;;;4992269;28;20084;-73
2023/09/23 03:15:14;;;;;;;95.00;51.30;;;;;;;;;;4995999;28;20203;-73
2023/09/23 03:17:50;;;;;;;94.30;48.83;;;;;;;;;;4975841;28;20030;-75
2023/09/23 03:20:20;;;;;;;89.65;47.17;;;;;;;;;;4983719;28;20395;-72
2023/09/23 03:22:52;;;;;;;88.75;47.60;;;;;;;;;;4977874;28;20069;-72
2023/09/23 03:25:19;;;;;;;74.88;43.65;;;;;;;;;;4975549;28;20065;-73
2023/09/23 03:27:47;;;;;;;77.40;43.45;;;;;;;;;;4975998;28;20129;-74
2023/09/23 03:30:13;;;;;;;78.43;43.20;;;;;;;;;;4974528;28;20022;-73
2023/09/23 03:32:41;;;;;;;75.55;41.53;;;;;;;;;;4986400;28;20365;-73
2023/09/23 03:35:13;;;;;;;69.63;40.05;;;;;;;;;;4971961;28;20030;-74
2023/09/23 03:37:40;;;;;;;73.25;41.28;;;;;;;;;;4992740;28;20030;-73
2023/09/23 03:40:07;;;;;;;74.18;39.15;;;;;;;;;;4992255;28;20050;-73
2023/09/23 03:42:34;;;;;;;72.93;38.30;;;;;;;;;;4992998;28;20058;-74
2023/09/23 03:45:03;;;;;;;71.80;39.53;;;;;;;;;;4992289;28;20076;-74
2023/09/23 03:47:29;;;;;;;69.78;38.92;;;;;;;;;;4985325;28;20061;-74
2023/09/23 03:49:56;;;;;;;72.25;39.33;;;;;;;;;;4994011;28;20034;-73
2023/09/23 03:52:23;;;;;;;67.78;38.90;;;;;;;;;;4974394;28;20283;-73
2023/09/23 03:54:50;;;;;;;67.50;37.42;;;;;;;;;;4966426;28;20027;-74
2023/09/23 03:57:19;;;;;;;69.65;38.25;;;;;;;;;;4985728;28;20118;-74
2023/09/23 03:59:47;;;;;;;70.07;36.33;;;;;;;;;;4982657;28;20045;-74
2023/09/23 04:02:14;;;;;;;68.40;35.72;;;;;;;;;;4983280;28;20081;-72
2023/09/23 04:04:41;;;;;;;66.25;36.60;;;;;;;;;;4979736;28;20066;-72
2023/09/23 04:07:07;;;;;;;70.78;36.20;;;;;;;;;;4979740;28;20085;-73
2023/09/23 04:09:33;;;;;;;75.80;37.65;;;;;;;;;;4995453;28;20235;-75
2023/09/23 04:12:00;;;;;;;73.72;37.85;;;;;;;;;;4992605;28;20135;-73
2023/09/23 04:14:29;;;;;;;75.20;38.70;;;;;;;;;;4999129;28;20031;-73
2023/09/23 04:16:56;;;;;;;73.18;36.65;;;;;;;;;;4996000;28;20026;-74
2023/09/23 04:19:23;;;;;;;66.82;37.10;;;;;;;;;;4995791;28;20125;-74
2023/09/23 04:21:49;;;;;;;70.20;38.40;;;;;;;;;;4992251;28;20569;-74
2023/09/23 04:24:15;;;;;;;84.43;40.33;;;;;;;;;;4987029;28;20085;-74
2023/09/23 04:26:41;;;;;;;74.90;39.03;;;;;;;;;;4991854;28;20551;-73
2023/09/23 04:29:07;;;;;;;71.57;37.55;;;;;;;;;;4992941;28;20065;-75
2023/09/23 04:31:33;;;;;;;68.68;37.60;;;;;;;;;;4983637;28;20309;-72
2023/09/23 04:34:00;;;;;;;67.88;37.15;;;;;;;;;;4997325;28;20026;-72
2023/09/23 04:36:26;;;;;;;77.47;38.15;;;;;;;;;;4999628;28;20026;-73
2023/09/23 04:38:52;;;;;;;68.53;36.20;;;;;;;;;;4998686;28;20022;-74
2023/09/23 04:41:18;;;;;;;66.65;35.90;;;;;;;;;;4998960;28;20128;-72
2023/09/23 04:43:44;;;;;;;68.75;35.97;;;;;;;;;;4986468;28;20038;-74
2023/09/23 04:46:14;;;;;;;61.13;34.50;;;;;;;;;;5000570;28;20108;-73
2023/09/23 04:48:41;;;;;;;62.70;34.83;;;;;;;;;;5000071;28;20038;-73
2023/09/23 04:51:08;;;;;;;62.00;33.90;;;;;;;;;;4969127;28;20068;-74
2023/09/23 04:53:35;;;;;;;58.40;34.10;;;;;;;;;;5000398;28;20061;-73
2023/09/23 04:56:16;;;;;;;59.15;35.35;;;;;;;;;;4980931;28;20034;-75
2023/09/23 04:58:42;;;;;;;;;;;;;;;;;;4996818;28;20388;-73
2023/09/23 05:01:14;;;;;;;63.08;34.72;;;;;;;;;;5000216;28;20011;-74
2023/09/23 05:03:42;;;;;;;62.60;34.88;;;;;;;;;;4997109;28;20045;-74
2023/09/23 05:06:09;;;;;;;61.78;33.53;;;;;;;;;;4994953;28;20073;-74
2023/09/23 05:08:35;;;;;;;62.92;34.63;;;;;;;;;;5000165;28;20040;-74
2023/09/23 05:11:03;;;;;;;56.03;32.88;;;;;;;;;;4973904;28;20038;-74
2023/09/23 05:13:29;;;;;;;62.38;34.33;;;;;;;;;;5004902;28;20104;-75
2023/09/23 05:15:55;;;;;;;54.42;32.88;;;;;;;;;;5016330;28;20053;-74
2023/09/23 05:18:24;;;;;;;59.28;33.03;;;;;;;;;;5000565;28;20563;-74
2023/09/23 05:20:50;;;;;;;54.20;33.28;;;;;;;;;;4999334;28;20030;-74
2023/09/23 05:23:16;;;;;;;68.70;35.95;;;;;;;;;;4997021;28;20037;-73
2023/09/23 05:25:42;;;;;;;69.32;36.15;;;;;;;;;;5002012;28;20167;-73
2023/09/23 05:28:10;;;;;;;56.63;33.15;;;;;;;;;;5000722;28;20065;-73
2023/09/23 05:30:36;;;;;;;63.25;35.25;;;;;;;;;;4998759;28;20030;-75
2023/09/23 05:33:02;;;;;;;62.92;34.72;;;;;;;;;;4987247;28;20034;-74
2023/09/23 05:35:29;;;;;;;62.65;34.63;;;;;;;;;;4999035;28;20391;-74
2023/09/23 05:37:55;;;;;;;60.65;34.65;;;;;;;;;;4995106;28;20040;-74
2023/09/23 05:40:27;;;;;;;69.45;35.80;;;;;;;;;;4982189;28;20061;-73
2023/09/23 05:42:56;;;;;;;62.60;35.10;;;;;;;;;;5004626;28;20041;-73
2023/09/23 05:45:24;;;;;;;65.95;34.00;;;;;;;;;;5007414;28;20222;-73
2023/09/23 05:47:51;;;;;;;61.05;34.75;;;;;;;;;;4999193;28;20169;-74
2023/09/23 05:50:17;;;;;;;58.88;33.60;;;;;;;;;;4984966;28;20113;-74
2023/09/23 05:52:45;;;;;;;61.53;34.83;;;;;;;;;;4994145;28;20027;-73
2023/09/23 05:55:12;;;;;;;62.13;33.67;;;;;;;;;;4999271;28;20407;-74
2023/09/23 05:57:41;;;;;;;63.40;31.83;;;;;;;;;;4997716;28;20049;-74
2023/09/23 06:00:08;;;;;;;55.55;30.95;;;;;;;;;;4998435;28;20031;-73
2023/09/23 06:02:35;;;;;;;59.65;31.23;;;;;;;;;;4996033;28;20503;-73
2023/09/23 06:05:01;;;;;;;53.03;29.13;;;;;;;;;;5002087;28;20038;-73
2023/09/23 06:07:28;;;;;;;49.85;27.88;;;;;;;;;;4988005;28;20038;-73
2023/09/23 06:09:55;;;;;;;49.65;28.77;;;;;;;;;;4998719;28;20022;-72
2023/09/23 06:12:21;;;;;;;45.88;25.63;;;;;;;;;;5005122;28;20033;-75
2023/09/23 06:14:49;;;;;;;49.45;26.60;;;;;;;;;;4978482;28;20125;-74
2023/09/23 06:17:15;;;;;;;43.25;25.73;;;;;;;;;;5003317;28;20099;-74
2023/09/23 06:19:41;;;;;;;47.22;25.92;;;;;;;;;;4998306;28;20609;-73
2023/09/23 06:22:07;;;;;;;44.08;23.08;;;;;;;;;;4979293;28;20065;-73
2023/09/23 06:24:33;;;;;;;40.70;21.33;;;;;;;;;;4998640;28;20125;-74
2023/09/23 06:26:59;;;;;;;35.10;20.50;;;;;;;;;;4980809;28;20034;-73
2023/09/23 06:29:27;;;;;;;33.25;20.08;;;;;;;;;;5000202;28;20042;-75
2023/09/23 06:31:55;;;;;;;40.08;19.50;;;;;;;;;;5004457;28;20056;-73
2023/09/23 06:34:21;;;;;;;32.90;19.67;;;;;;;;;;5007894;28;20041;-74
2023/09/23 06:36:47;;;;;;;31.80;19.52;;;;;;;;;;4992223;28;20030;-74
2023/09/23 06:39:13;;;;;;;35.78;18.52;;;;;;;;;;5002014;28;20033;-73
2023/09/23 06:41:39;;;;;;;32.22;17.75;;;;;;;;;;5001215;28;20050;-73
2023/09/23 06:44:07;;;;;;;30.25;16.23;;;;;;;;;;4998447;28;20030;-73
2023/09/23 06:46:33;;;;;;;30.02;16.13;;;;;;;;;;4962411;28;20125;-73
2023/09/23 06:49:00;;;;;;;31.38;16.25;;;;;;;;;;5002522;28;20026;-73
2023/09/23 06:51:27;;;;;;;31.50;16.50;;;;;;;;;;4994114;28;20018;-73
2023/09/23 06:53:53;;;;;;;25.42;15.95;;;;;;;;;;5001256;28;20480;-74
2023/09/23 06:56:19;;;;;;;25.80;14.90;;;;;;;;;;4995981;28;20041;-73
2023/09/23 06:58:45;;;;;;;26.00;15.93;;;;;;;;;;4996238;28;20057;-74
2023/09/23 07:01:11;;;;;;;29.75;14.65;;;;;;;;;;4987005;28;20043;-75
2023/09/23 07:03:37;;;;;;;26.80;15.18;;;;;;;;;;5006415;28;20049;-73
2023/09/23 07:06:03;;;;;;;27.60;13.75;;;;;;;;;;4979210;28;20048;-73
2023/09/23 07:08:30;;;;;;;35.58;15.38;;;;;;;;;;5010411;28;20030;-73
2023/09/23 07:10:56;;;;;;;23.95;13.57;;;;;;;;;;4981896;28;20033;-73
2023/09/23 07:13:22;;;;;;;27.67;13.18;;;;;;;;;;5010102;28;20041;-73
2023/09/23 07:15:48;;;;;;;23.70;12.13;;;;;;;;;;5002676;28;20026;-72
2023/09/23 07:18:14;;;;;;;26.40;12.20;;;;;;;;;;4995780;28;20061;-72
2023/09/23 07:20:40;;;;;;;23.63;12.00;;;;;;;;;;4982843;28;20149;-73
2023/09/23 07:23:07;;;;;;;21.25;11.95;;;;;;;;;;5008069;28;20030;-73
2023/09/23 07:25:40;;;;;;;22.65;11.38;;;;;;;;;;5008869;28;20132;-74
2023/09/23 07:28:07;;;;;;;17.23;11.52;;;;;;;;;;4984137;28;20055;-74
2023/09/23 07:30:34;;;;;;;25.77;11.48;;;;;;;;;;4984889;28;20449;-74
2023/09/23 07:33:00;;;;;;;18.45;11.13;;;;;;;;;;5003781;28;20109;-72
2023/09/23 07:35:31;;;;;;;23.67;10.23;;;;;;;;;;4997399;28;20037;-72
2023/09/23 07:37:59;;;;;;;;;;;;;;;;;;5009543;28;20037;-73
2023/09/23 07:40:26;;;;;;;23.13;11.07;;;;;;;;;;4990269;28;19925;-73
2023/09/23 07:42:52;;;;;;;22.75;9.45;;;;;;;;;;4990642;28;20030;-73
2023/09/23 07:45:19;;;;;;;16.52;8.80;;;;;;;;;;5000014;28;20038;-73
2023/09/23 07:47:45;;;;;;;13.48;7.95;;;;;;;;;;4972939;28;20068;-74
2023/09/23 07:50:11;;;;;;;15.68;7.32;;;;;;;;;;4987382;28;20037;-74
2023/09/23 07:52:37;;;;;;;13.93;7.10;;;;;;;;;;5006164;28;20028;-73
2023/09/23 07:55:07;;;;;;;12.93;7.07;;;;;;;;;;4998358;28;20117;-72
2023/09/23 07:57:33;;;;;;;15.90;7.53;;;;;;;;;;4994697;28;20038;-74
2023/09/23 08:00:00;;;;;;;15.57;7.43;;;;;;;;;;5000655;28;20057;-73
2023/09/23 08:02:26;;;;;;;11.95;7.13;;;;;;;;;;5004218;28;20038;-72
2023/09/23 08:04:52;;;;;;;19.50;6.40;;;;;;;;;;5008233;28;20033;-72
2023/09/23 08:07:18;;;;;;;11.43;5.97;;;;;;;;;;4989041;28;20411;-71
2023/09/23 08:09:44;;;;;;;17.77;6.50;;;;;;;;;;4982141;28;20089;-72
2023/09/23 08:12:11;;;;;;;15.15;6.90;;;;;;;;;;4988845;28;20084;-72
2023/09/23 08:14:39;;;;;;;10.20;5.85;;;;;;;;;;5009966;28;20156;-73
2023/09/23 08:17:05;;;;;;;10.15;5.45;;;;;;;;;;4976603;28;20046;-73
2023/09/23 08:19:31;;;;;;;8.63;5.10;;;;;;;;;;5008112;28;20089;-72
2023/09/23 08:21:57;;;;;;;10.05;4.80;;;;;;;;;;5002449;28;20194;-73
2023/09/23 08:24:23;;;;;;;14.00;5.90;;;;;;;;;;4999644;28;20117;-72
2023/09/23 08:26:49;;;;;;;10.43;5.15;;;;;;;;;;5011086;28;20136;-73
2023/09/23 08:29:16;;;;;;;11.02;5.78;;;;;;;;;;5000727;28;20038;-73
2023/09/23 08:31:42;;;;;;;15.48;5.53;;;;;;;;;;4981503;28;20498;-73
2023/09/23 08:34:11;;;;;;;9.18;4.88;;;;;;;;;;5009331;28;20030;-73
2023/09/23 08:36:37;;;;;;;10.60;4.85;;;;;;;;;;5001453;28;20037;-73
2023/09/23 08:39:09;;;;;;;12.05;5.10;;;;;;;;;;5001519;28;20065;-73
2023/09/23 08:41:36;;;;;;;11.77;5.15;;;;;;;;;;5004890;28;20168;-73
2023/09/23 08:44:05;;;;;;;10.65;4.88;;;;;;;;;;5008123;28;20100;-73
2023/09/23 08:46:32;;;;;;;13.23;4.53;;;;;;;;;;4997989;28;20239;-73
2023/09/23 08:49:03;;;;;;;10.63;4.50;;;;;;;;;;4981909;28;20076;-73
2023/09/23 08:51:30;;;;;;;13.45;4.40;;;;;;;;;;4993888;28;20109;-72
2023/09/23 08:53:56;;;;;;;9.10;4.40;;;;;;;;;;5005469;28;20033;-72
2023/09/23 08:56:23;;;;;;;9.07;4.53;;;;;;;;;;4997029;28;20028;-71
2023/09/23 08:58:49;;;;;;;12.43;5.25;;;;;;;;;;4978541;28;20029;-73
2023/09/23 09:01:16;;;;;;;11.68;5.20;;;;;;;;;;4995652;28;20045;-72
2023/09/23 09:03:44;;;;;;;13.75;5.95;;;;;;;;;;4993461;28;20495;-72
2023/09/23 09:06:21;;;;;;;13.90;5.93;;;;;;;;;;5012301;28;20120;-72
2023/09/23 09:08:48;;;;;;;16.23;6.18;;;;;;;;;;5000943;28;20131;-72
2023/09/23 09:11:21;;;;;;;14.80;6.40;;;;;;;;;;5012113;28;20030;-72
2023/09/23 09:13:47;;;;;;;15.02;6.57;;;;;;;;;;5000778;28;20562;-72
2023/09/23 09:16:14;;;;;;;13.40;7.07;;;;;;;;;;4990013;28;20306;-72
2023/09/23 09:18:40;;;;;;;17.80;6.55;;;;;;;;;;4999280;28;20034;-73
2023/09/23 09:21:08;;;;;;;17.52;6.88;;;;;;;;;;5006743;28;20104;-73
2023/09/23 09:23:38;;;;;;;14.68;5.95;;;;;;;;;;5002007;28;20042;-73
2023/09/23 09:26:04;;;;;;;15.32;5.70;;;;;;;;;;4990959;28;20041;-73
2023/09/23 09:28:30;;;;;;;13.65;5.93;;;;;;;;;;4973356;28;20043;-73
2023/09/23 09:30:57;;;;;;;14.85;5.80;;;;;;;;;;5011025;28;20033;-73
2023/09/23 09:33:27;;;;;;;12.40;5.55;;;;;;;;;;4996976;28;20030;-73
2023/09/23 09:35:57;;;;;;;10.77;5.50;;;;;;;;;;5003826;28;20033;-74
2023/09/23 09:38:25;;;;;;;22.00;7.75;;;;;;;;;;4981499;28;20209;-73
2023/09/23 09:40:56;;;;;;;13.43;6.18;;;;;;;;;;4999256;28;20034;-73
2023/09/23 09:43:22;;;;;;;15.68;5.75;;;;;;;;;;5000301;28;20108;-72
2023/09/23 09:45:50;;;;;;;17.42;6.45;;;;;;;;;;4980699;28;20502;-72
2023/09/23 09:48:19;;;;;;;14.32;6.22;;;;;;;;;;5007147;28;20417;-72
2023/09/23 09:50:45;;;;;;;12.48;5.82;;;;;;;;;;5003320;28;20037;-71
2023/09/23 09:53:12;;;;;;;14.38;6.43;;;;;;;;;;5008854;28;20026;-73
2023/09/23 09:55:39;;;;;;;14.95;5.80;;;;;;;;;;4997506;28;20026;-72
2023/09/23 09:58:06;;;;;;;14.40;6.25;;;;;;;;;;4999859;28;20077;-76
2023/09/23 10:00:42;;;;;;;13.52;5.65;;;;;;;;;;4996242;28;20041;-74
2023/09/23 10:03:11;;;;;;;8.45;4.28;;;;;;;;;;4959249;28;20092;-74
2023/09/23 10:05:50;;;;;;;7.32;3.17;;;;;;;;;;4992486;28;20495;-74
2023/09/23 10:08:25;;;;;;;9.00;2.78;;;;;;;;;;4990015;28;20125;-74
2023/09/23 10:10:58;;;;;;;8.57;2.80;;;;;;;;;;4992780;28;20095;-74
2023/09/23 10:13:24;;;;;;;7.45;2.60;;;;;;;;;;4998521;28;20026;-74
2023/09/23 10:15:51;;;;;;;11.90;3.10;;;;;;;;;;4991099;28;20381;-74
2023/09/23 10:18:18;;;;;;;6.10;2.55;;;;;;;;;;5000584;28;20030;-73
2023/09/23 10:20:51;;;;;;;7.25;2.20;;;;;;;;;;5000566;28;20065;-74
2023/09/23 10:23:19;;;;;;;7.32;2.20;;;;;;;;;;4992677;28;20038;-74
2023/09/23 10:25:47;;;;;;;8.00;2.10;;;;;;;;;;4995131;28;20543;-75
2023/09/23 10:28:39;;;;;;;9.35;1.92;;;;;;;;;;4997845;28;20042;-73
2023/09/23 10:31:06;;;;;;;9.52;2.10;;;;;;;;;;4962650;28;20084;-74
2023/09/23 10:33:36;;;;;;;5.15;1.55;;;;;;;;;;4999264;28;20102;-74
2023/09/23 10:36:03;;;;;;;6.30;1.80;;;;;;;;;;4980016;28;20036;-73
2023/09/23 10:38:31;;;;;;;6.22;1.00;;;;;;;;;;5005854;28;20195;-74
2023/09/23 10:40:57;;;;;;;2.50;0.80;;;;;;;;;;4976717;28;20388;-74
2023/09/23 10:43:24;;;;;;;3.63;0.93;;;;;;;;;;5000059;28;20030;-73
2023/09/23 10:45:52;;;;;;;3.17;0.80;;;;;;;;;;5006815;28;20038;-74
2023/09/23 10:48:19;;;;;;;3.13;0.60;;;;;;;;;;5006706;28;20030;-76
2023/09/23 10:50:45;;;;;;;3.60;0.70;;;;;;;;;;4993353;28;20090;-74
2023/09/23 10:53:12;;;;;;;5.43;0.77;;;;;;;;;;5006515;28;20022;-74
2023/09/23 10:55:39;;;;;;;4.47;1.75;;;;;;;;;;5010925;28;20088;-73
2023/09/23 10:58:09;;;;;;;2.47;0.70;;;;;;;;;;5004532;28;20030;-74
2023/09/23 11:00:36;;;;;;;2.63;0.60;;;;;;;;;;4997911;28;20570;-74
2023/09/23 11:03:07;;;;;;;2.92;0.60;;;;;;;;;;4979910;28;20079;-74
2023/09/23 11:05:37;;;;;;;3.20;1.08;;;;;;;;;;4983127;28;20535;-74
2023/09/23 11:08:10;;;;;;;6.27;1.40;;;;;;;;;;4998519;28;20038;-75
2023/09/23 11:10:43;;;;;;;4.10;1.20;;;;;;;;;;5006139;28;20316;-74
2023/09/23 11:13:10;;;;;;;4.30;1.13;;;;;;;;;;5005403;28;20026;-72
2023/09/23 11:15:37;;;;;;;6.03;1.73;;;;;;;;;;4978150;28;20034;-72
2023/09/23 11:18:03;;;;;;;4.63;1.00;;;;;;;;;;4993037;28;20038;-73
2023/09/23 11:20:33;;;;;;;6.82;1.30;;;;;;;;;;5001584;28;20092;-72
2023/09/23 11:23:03;;;;;;;4.75;1.15;;;;;;;;;;5008251;28;20030;-73
2023/09/23 11:25:41;;;;;;;3.03;1.40;;;;;;;;;;5005599;28;20064;-73
2023/09/23 11:28:08;;;;;;;5.18;1.00;;;;;;;;;;4989305;28;20058;-75
2023/09/23 11:30:34;;;;;;;3.45;0.70;;;;;;;;;;4996693;28;20486;-74
2023/09/23 11:33:00;;;;;;;4.68;1.10;;;;;;;;;;4982366;28;20022;-72
2023/09/23 11:35:27;;;;;;;2.28;0.90;;;;;;;;;;5003599;28;20065;-76
2023/09/23 11:37:54;;;;;;;5.00;1.02;;;;;;;;;;5015188;28;20237;-74
2023/09/23 11:40:22;;;;;;;5.78;1.40;;;;;;;;;;5013450;28;20040;-72
2023/09/23 11:42:49;;;;;;;7.22;1.55;;;;;;;;;;5009647;28;20132;-72
2023/09/23 11:45:15;;;;;;;5.63;1.50;;;;;;;;;;4999443;28;20376;-73
2023/09/23 11:47:42;;;;;;;5.60;1.45;;;;;;;;;;4974810;28;20042;-74
2023/09/23 11:50:08;;;;;;;6.90;1.95;;;;;;;;;;4999439;28;20034;-74
2023/09/23 11:52:34;;;;;;;9.10;1.70;;;;;;;;;;4985442;28;20030;-74
2023/09/23 11:55:01;;;;;;;4.38;1.42;;;;;;;;;;4991472;28;20046;-73
2023/09/23 11:57:27;;;;;;;11.52;1.70;;;;;;;;;;4985215;28;20034;-73
2023/09/23 11:59:54;;;;;;;8.98;1.10;;;;;;;;;;4994567;28;20042;-72
2023/09/23 12:02:21;;;;;;;5.05;1.15;;;;;;;;;;5000009;28;20042;-72
2023/09/23 12:04:48;;;;;;;4.32;0.80;;;;;;;;;;4994408;28;20494;-72
2023/09/23 12:07:14;;;;;;;7.35;1.10;;;;;;;;;;4971941;28;20049;-72
2023/09/23 12:09:41;;;;;;;2.92;0.75;;;;;;;;;;4980394;28;20037;-72
2023/09/23 12:12:10;;;;;;;5.63;0.93;;;;;;;;;;4998016;28;20029;-73
2023/09/23 12:14:37;;;;;;;4.82;1.20;;;;;;;;;;5003348;28;20030;-73
2023/09/23 12:17:03;;;;;;;7.72;1.58;;;;;;;;;;5007100;28;20640;-73
2023/09/23 12:19:29;;;;;;;5.72;1.00;;;;;;;;;;4986526;28;20491;-73
2023/09/23 12:21:55;;;;;;;5.93;0.80;;;;;;;;;;4988166;28;20534;-73
2023/09/23 12:24:21;;;;;;;6.28;1.00;;;;;;;;;;4972717;28;20579;-74
2023/09/23 12:26:47;;;;;;;3.67;0.82;;;;;;;;;;4992394;28;20159;-71
2023/09/23 12:29:14;;;;;;;4.45;1.17;;;;;;;;;;4996516;28;20052;-75
2023/09/23 12:31:40;;;;;;;3.55;0.85;;;;;;;;;;4993345;28;20042;-74
2023/09/23 12:34:06;;;;;;;2.15;0.85;;;;;;;;;;4995575;28;20030;-73
2023/09/23 12:36:32;;;;;;;2.38;0.70;;;;;;;;;;4966771;28;20543;-73
2023/09/23 12:38:58;;;;;;;4.95;0.82;;;;;;;;;;4999577;28;20033;-73
2023/09/23 12:41:25;;;;;;;3.80;0.80;;;;;;;;;;4982139;28;20098;-73
2023/09/23 12:43:51;;;;;;;3.70;0.75;;;;;;;;;;4984648;28;20120;-74
2023/09/23 12:46:17;;;;;;;5.93;0.90;;;;;;;;;;5004717;28;20065;-74
2023/09/23 12:48:44;;;;;;;3.38;0.98;;;;;;;;;;4992651;28;20489;-74
2023/09/23 12:51:12;;;;;;;2.25;0.70;;;;;;;;;;4979968;28;20030;-74
2023/09/23 12:53:38;;;;;;;8.32;0.93;;;;;;;;;;4989502;28;20034;-74
2023/09/23 12:56:04;;;;;;;7.68;1.48;;;;;;;;;;5000641;28;20026;-73
2023/09/23 12:58:31;;;;;;;3.40;0.80;;;;;;;;;;5002571;28;20149;-73
2023/09/23 13:00:57;;;;;;;5.10;0.90;;;;;;;;;;5006917;28;20042;-73
2023/09/23 13:03:23;;;;;;;4.20;1.10;;;;;;;;;;4998804;28;20038;-73
2023/09/23 13:05:49;;;;;;;4.55;1.20;;;;;;;;;;5000539;28;20072;-73
2023/09/23 13:08:15;;;;;;;3.47;0.98;;;;;;;;;;4997852;28;20409;-74
2023/09/23 13:10:41;;;;;;;4.80;1.23;;;;;;;;;;4966115;28;20415;-73
2023/09/23 13:13:08;;;;;;;4.13;1.00;;;;;;;;;;4962879;28;20463;-73
2023/09/23 13:15:34;;;;;;;5.20;1.00;;;;;;;;;;4997685;28;20030;-72
2023/09/23 13:18:02;;;;;;;5.15;1.23;;;;;;;;;;4986529;28;20038;-73
2023/09/23 13:20:28;;;;;;;6.72;1.30;;;;;;;;;;5003721;28;20050;-74
2023/09/23 13:22:54;;;;;;;10.55;1.45;;;;;;;;;;5004707;28;20061;-73
2023/09/23 13:25:20;;;;;;;5.72;1.02;;;;;;;;;;5000486;28;20034;-73
2023/09/23 13:27:47;;;;;;;3.78;0.68;;;;;;;;;;4986747;28;20065;-73
2023/09/23 13:30:13;;;;;;;2.67;0.85;;;;;;;;;;4977633;28;20464;-73
2023/09/23 13:32:39;;;;;;;5.88;0.98;;;;;;;;;;4998617;28;20030;-77
2023/09/23 13:35:07;;;;;;;4.28;1.20;;;;;;;;;;4980374;28;20031;-74
2023/09/23 13:37:33;;;;;;;6.03;1.90;;;;;;;;;;4999431;28;20109;-72
2023/09/23 13:40:00;;;;;;;4.97;1.17;;;;;;;;;;4993596;28;20021;-72
2023/09/23 13:42:26;;;;;;;4.00;0.70;;;;;;;;;;4999779;28;20171;-72
2023/09/23 13:44:53;;;;;;;3.47;0.90;;;;;;;;;;5008191;28;20788;-72
2023/09/23 13:47:19;;;;;;;4.80;0.90;;;;;;;;;;5009173;28;20499;-72
2023/09/23 13:49:45;;;;;;;4.32;1.05;;;;;;;;;;5001462;28;20121;-72
2023/09/23 13:52:11;;;;;;;6.13;0.93;;;;;;;;;;4967372;28;20381;-72
2023/09/23 13:54:37;;;;;;;6.63;1.33;;;;;;;;;;4999393;28;20527;-73
2023/09/23 13:57:04;;;;;;;6.47;0.77;;;;;;;;;;5001836;28;20093;-72
2023/09/23 13:59:30;;;;;;;2.33;0.68;;;;;;;;;;4998618;28;20041;-77
2023/09/23 14:01:56;;;;;;;4.05;0.88;;;;;;;;;;4983735;28;20124;-71
2023/09/23 14:04:22;;;;;;;4.72;0.80;;;;;;;;;;4970765;28;20402;-71
2023/09/23 14:06:49;;;;;;;4.35;0.80;;;;;;;;;;5002065;28;20026;-71
2023/09/23 14:09:15;;;;;;;2.67;0.52;;;;;;;;;;4995480;28;20041;-71
2023/09/23 14:11:41;;;;;;;6.97;1.13;;;;;;;;;;4973651;28;20479;-72
2023/09/23 14:14:07;;;;;;;5.22;0.68;;;;;;;;;;5006628;28;20058;-71
2023/09/23 14:16:33;;;;;;;5.05;0.70;;;;;;;;;;4964214;28;20479;-72
2023/09/23 14:19:00;;;;;;;3.13;0.65;;;;;;;;;;4997799;28;20072;-70
2023/09/23 14:21:26;;;;;;;3.97;0.60;;;;;;;;;;5000563;28;20038;-71
2023/09/23 14:23:52;;;;;;;3.03;0.50;;;;;;;;;;5000016;28;20066;-73
2023/09/23 14:26:20;;;;;;;7.82;0.82;;;;;;;;;;4997919;28;20420;-71
2023/09/23 14:28:46;;;;;;;5.72;0.82;;;;;;;;;;4997076;28;20051;-72